Aeroporto :
LOGIN :

Iscrizione | Disclaimer

   EN    FR    IT 

 










Sommario :    VFR   VFR Marginale   IFR   IFR Intensivo   IFR Molto Intensivo
Visibilità : 
Base nubi : 
>= 8 km
>= 3000ft
5 / 8 km
1000 / 3000 ft
1500m / 5 km
500 / 1000 ft
800 / 1500m
200 / 500 ft
< 800m
< 200 ft
Simboli :   Temporali  Nebbia  Neve Forte  Precipitazioni Forti  Vento > 20 kt
SIGMETs :   Varie  Temporali  Ghiacco  Turbolenza  Onda orograficha  Ceneri Vulcaniche







- Altitudine del aeroporto : 40 ft
- Codice IATA : RMI


LIPR - Federico Fellini Int. Rimini

ULTIMO METAR :
  • 142150Z 26004KT 4000 BR NSC 11/11 Q1026

METARs OBSOLETI :
  • 142120Z 27004KT 3500 BR NSC 11/10 Q1027
  • 142050Z 27005KT 3500 BR NSC 12/11 Q1027
  • 142020Z 26003KT 240V310 3000 BR SCT015 12/11 Q1027
  • 141950Z 27004KT 3500 BR NSC 12/11 Q1027
  • 141920Z 28005KT 3000 BR SCT020 12/12 Q1027

TAF TAF LIPR
Valido dal 14 a 21 ore il 15 a 06 ore UTC


142000Z 1421/1506 27006KT 1200 BR BKN010
BECMG 1421/1423 0800 FG OVC003
Nessun NOTAM noto per questo aeroporto.



MetMap, La meteo Aeronautica in un colpo d'occhio ! - Copyright ORBIFLY Dicembre 2007 - Disclaimer

ORBIFLY MET'MAP TEAM :

Programmazione e sviluppo : Alexandra Zaïnal
Concezione e sviluppo : Baudouin d'Aumeries
Co-Programmazione e sviluppo : Marc-Olivier Méhu
Supporto tecnico e logistico : Manuel Goepfert
Aiuto per la traduzione : Arnaldo La Scala

Contatto : metmap@orbifly.com




FONTI E CREDITI :

   NOAA